Leetsdale, Pennsylvania
Current Conditions -  °F | °C
As of 3:51 PM on Thursday 18 Dec 2014 (Local Time) from KPIT Reporting Station
Overcast Overcast  
Wind Chill: 23°   Ceiling: 2100
Heat Index: 29°   Visibility: 10mi
Dew Point: 21°   Wind: 6mph
Humidity: 72%   Direction: 260°W
Pressure: 30.15"   Gusts: NA
Location:  40.56°N, 80.21°W
Report Text: KPIT 182051Z 26005KT 10SM OVC021 M02/M06 A3015 RMK AO2 SLP234 60000 T10171061 55000
Loading
Personal Weather Stations






























Interactive Weather Map New forecast layout! Learn more

10-Day Weather Forecast

Advertisements
Track Severe Weather on mobile